createdAt,value
2019-03-03T00:00:41.144Z,9.30
2019-03-03T00:03:10.064Z,9.40
2019-03-03T00:05:38.620Z,9.40
2019-03-03T00:08:07.284Z,9.40
2019-03-03T00:10:36.037Z,9.40
2019-03-03T00:13:04.904Z,9.40
2019-03-03T00:15:33.752Z,9.40
2019-03-03T00:18:02.289Z,9.40
2019-03-03T00:20:30.836Z,9.40
2019-03-03T00:22:59.368Z,9.40
2019-03-03T00:25:27.987Z,9.40
2019-03-03T00:27:56.444Z,9.40
2019-03-03T00:30:25.357Z,9.40
2019-03-03T00:32:53.916Z,9.40
2019-03-03T00:35:22.443Z,9.30
2019-03-03T00:38:07.928Z,9.30
2019-03-03T00:40:47.100Z,9.30
2019-03-03T00:43:17.663Z,9.30
2019-03-03T00:45:47.760Z,9.30
2019-03-03T00:48:17.955Z,9.30
2019-03-03T00:51:00.516Z,9.20
2019-03-03T00:53:42.713Z,9.20
2019-03-03T00:56:25.536Z,9.20
2019-03-03T00:58:58.671Z,9.20
2019-03-03T01:01:32.435Z,9.20
2019-03-03T01:04:05.511Z,9.20
2019-03-03T01:06:44.955Z,9.20
2019-03-03T01:09:25.987Z,9.20
2019-03-03T01:12:13.868Z,9.20
2019-03-03T01:14:50.144Z,9.20
2019-03-03T01:17:20.413Z,9.20
2019-03-03T01:19:50.580Z,9.20
2019-03-03T01:22:20.680Z,9.20
2019-03-03T01:24:58.240Z,9.10
2019-03-03T01:27:27.108Z,9.20
2019-03-03T01:29:55.670Z,9.10
2019-03-03T01:32:24.196Z,9.20
2019-03-03T01:34:52.675Z,9.10
2019-03-03T01:37:21.128Z,9.10
2019-03-03T01:39:49.620Z,9.20
2019-03-03T01:42:18.152Z,9.10
2019-03-03T01:44:46.628Z,9.10
2019-03-03T01:47:15.224Z,9.10
2019-03-03T01:49:43.849Z,9.10
2019-03-03T01:52:12.372Z,9.10
2019-03-03T01:54:40.856Z,9.10
2019-03-03T01:57:09.392Z,9.10
2019-03-03T01:59:37.944Z,9.10
2019-03-03T02:02:06.576Z,9.10
2019-03-03T02:04:35.108Z,9.10
2019-03-03T02:07:04.112Z,9.10
2019-03-03T02:09:33.296Z,9.10
2019-03-03T02:12:01.776Z,9.10
2019-03-03T02:14:30.369Z,9.10
2019-03-03T02:16:58.991Z,9.10
2019-03-03T02:19:27.548Z,9.10
2019-03-03T02:21:56.100Z,9.00
2019-03-03T02:24:24.553Z,9.00
2019-03-03T02:26:53.524Z,9.00
2019-03-03T02:29:21.978Z,9.00
2019-03-03T02:31:50.505Z,9.00
2019-03-03T02:34:19.129Z,9.00
2019-03-03T02:36:48.077Z,9.00
2019-03-03T02:39:16.976Z,9.00
2019-03-03T02:41:45.542Z,9.00
2019-03-03T02:44:14.678Z,9.00
2019-03-03T02:46:43.344Z,9.00
2019-03-03T02:49:11.901Z,9.00
2019-03-03T02:51:40.501Z,8.90
2019-03-03T02:54:09.057Z,8.90
2019-03-03T02:56:37.588Z,8.90
2019-03-03T02:59:06.528Z,8.90
2019-03-03T03:01:42.761Z,8.90
2019-03-03T03:04:11.385Z,8.90
2019-03-03T03:06:53.894Z,8.90
2019-03-03T03:09:26.900Z,9.00
2019-03-03T03:12:12.613Z,8.90
2019-03-03T03:14:48.581Z,8.90
2019-03-03T03:17:18.673Z,8.90
2019-03-03T03:19:54.608Z,8.90
2019-03-03T03:22:27.550Z,8.90
2019-03-03T03:25:16.132Z,8.90
2019-03-03T03:27:46.225Z,8.90
2019-03-03T03:30:32.496Z,8.90
2019-03-03T03:33:05.846Z,8.90
2019-03-03T03:35:36.020Z,9.00
2019-03-03T03:38:22.465Z,9.00
2019-03-03T03:40:52.653Z,8.90
2019-03-03T03:43:25.772Z,9.00
2019-03-03T03:46:12.420Z,8.90
2019-03-03T03:48:58.913Z,8.90
2019-03-03T03:51:29.103Z,8.90
2019-03-03T03:54:02.124Z,9.00
2019-03-03T03:56:32.445Z,9.00
2019-03-03T03:59:05.528Z,8.90
2019-03-03T04:01:44.716Z,9.00
2019-03-03T04:04:15.044Z,8.90
2019-03-03T04:06:47.867Z,8.90
2019-03-03T04:09:18.423Z,8.90
2019-03-03T04:11:51.278Z,8.90
2019-03-03T04:14:37.865Z,8.90
2019-03-03T04:17:24.672Z,8.90
2019-03-03T04:19:55.233Z,8.90
2019-03-03T04:22:31.156Z,8.90
2019-03-03T04:25:19.587Z,9.00
2019-03-03T04:27:58.674Z,9.00
2019-03-03T04:30:41.117Z,9.00
2019-03-03T04:33:26.027Z,9.00
2019-03-03T04:36:12.383Z,9.00
2019-03-03T04:38:57.787Z,9.00
2019-03-03T04:41:27.903Z,9.00
2019-03-03T04:43:57.996Z,9.00
2019-03-03T04:46:28.107Z,8.90
2019-03-03T04:48:58.195Z,9.00
2019-03-03T04:51:28.312Z,9.00
2019-03-03T04:53:58.471Z,9.00
2019-03-03T04:56:31.379Z,8.90
2019-03-03T04:59:13.344Z,9.00
2019-03-03T05:01:43.454Z,8.90
2019-03-03T05:04:29.839Z,8.90
2019-03-03T05:07:00.027Z,8.90
2019-03-03T05:09:35.823Z,8.90
2019-03-03T05:12:16.440Z,9.00
2019-03-03T05:14:45.344Z,8.90
2019-03-03T05:17:17.942Z,8.90
2019-03-03T05:19:48.027Z,8.90
2019-03-03T05:22:16.479Z,9.00
2019-03-03T05:24:44.959Z,9.00
2019-03-03T05:27:13.412Z,9.00
2019-03-03T05:29:41.959Z,9.00
2019-03-03T05:32:10.408Z,9.00
2019-03-03T05:34:38.885Z,9.00
2019-03-03T05:37:07.408Z,8.90
2019-03-03T05:39:35.879Z,8.90
2019-03-03T05:42:04.331Z,8.90
2019-03-03T05:44:33.164Z,8.90
2019-03-03T05:47:01.955Z,8.90
2019-03-03T05:49:30.437Z,8.90
2019-03-03T05:51:58.885Z,8.90
2019-03-03T05:54:27.407Z,8.90
2019-03-03T05:56:55.887Z,8.90
2019-03-03T05:59:24.428Z,8.90
2019-03-03T06:01:52.967Z,9.00
2019-03-03T06:04:21.424Z,9.00
2019-03-03T06:06:49.971Z,9.00
2019-03-03T06:09:18.497Z,9.00
2019-03-03T06:11:47.507Z,9.00
2019-03-03T06:14:15.959Z,9.00
2019-03-03T06:16:44.495Z,9.00
2019-03-03T06:19:13.834Z,9.00
2019-03-03T06:21:42.459Z,9.00
2019-03-03T06:24:10.970Z,9.00
2019-03-03T06:26:39.430Z,9.00
2019-03-03T06:29:07.980Z,9.00
2019-03-03T06:31:36.429Z,9.10
2019-03-03T06:34:05.043Z,9.10
2019-03-03T06:36:33.494Z,9.10
2019-03-03T06:39:01.971Z,9.10
2019-03-03T06:41:30.496Z,9.20
2019-03-03T06:43:59.275Z,9.20
2019-03-03T06:46:27.752Z,9.20
2019-03-03T06:48:56.198Z,9.20
2019-03-03T06:51:24.684Z,9.20
2019-03-03T06:53:53.208Z,9.30
2019-03-03T06:56:21.728Z,9.30
2019-03-03T06:58:50.203Z,9.40
2019-03-03T07:01:18.975Z,9.40
2019-03-03T07:03:47.739Z,9.40
2019-03-03T07:06:16.364Z,9.40
2019-03-03T07:08:44.916Z,9.50
2019-03-03T07:11:13.443Z,9.50
2019-03-03T07:13:41.990Z,9.50
2019-03-03T07:16:10.443Z,9.50
2019-03-03T07:18:38.889Z,9.50
2019-03-03T07:21:07.372Z,9.60
2019-03-03T07:23:35.896Z,9.60
2019-03-03T07:26:04.511Z,9.60
2019-03-03T07:28:32.965Z,9.60
2019-03-03T07:31:01.451Z,9.60
2019-03-03T07:33:31.643Z,9.60
2019-03-03T07:36:00.103Z,9.60
2019-03-03T07:38:28.579Z,9.60
2019-03-03T07:40:57.027Z,9.70
2019-03-03T07:43:25.570Z,9.70
2019-03-03T07:45:54.015Z,9.70
2019-03-03T07:48:22.487Z,9.70
2019-03-03T07:50:50.935Z,9.70
2019-03-03T07:53:19.719Z,9.80
2019-03-03T07:55:48.175Z,9.80
2019-03-03T07:58:16.725Z,9.80
2019-03-03T08:00:45.175Z,9.80
2019-03-03T08:03:13.647Z,9.80
2019-03-03T08:05:42.100Z,9.80
2019-03-03T08:08:10.572Z,9.80
2019-03-03T08:10:39.023Z,9.80
2019-03-03T08:13:09.518Z,9.80
2019-03-03T08:15:37.748Z,9.80
2019-03-03T08:18:06.362Z,9.90
2019-03-03T08:20:34.822Z,9.90
2019-03-03T08:23:03.661Z,10.00
2019-03-03T08:25:32.188Z,10.00
2019-03-03T08:28:00.640Z,10.10
2019-03-03T08:30:30.979Z,10.10
2019-03-03T08:32:59.378Z,10.10
2019-03-03T08:35:29.959Z,10.20
2019-03-03T08:37:58.415Z,10.30
2019-03-03T08:40:26.891Z,10.30
2019-03-03T08:43:09.207Z,10.40
2019-03-03T08:45:45.130Z,10.30
2019-03-03T08:48:20.956Z,10.40
2019-03-03T08:51:07.518Z,10.40
2019-03-03T08:53:40.734Z,10.30
2019-03-03T08:56:13.699Z,10.40
2019-03-03T08:58:43.806Z,10.40
2019-03-03T09:01:30.200Z,10.40
2019-03-03T09:04:09.411Z,10.40
2019-03-03T09:06:45.631Z,10.40
2019-03-03T09:09:16.573Z,10.40
2019-03-03T09:12:02.767Z,10.40
2019-03-03T09:14:35.963Z,10.40
2019-03-03T09:17:06.222Z,10.50
2019-03-03T09:19:42.572Z,10.40
2019-03-03T09:22:31.095Z,10.40
2019-03-03T09:25:03.854Z,10.50
2019-03-03T09:27:40.071Z,10.50
2019-03-03T09:30:18.771Z,10.50
2019-03-03T09:33:05.135Z,10.50
2019-03-03T09:35:40.923Z,10.50
2019-03-03T09:38:16.811Z,10.60
2019-03-03T09:41:03.270Z,10.60
2019-03-03T09:43:35.824Z,10.60
2019-03-03T09:46:17.951Z,10.60
2019-03-03T09:48:48.081Z,10.60
2019-03-03T09:51:27.303Z,10.70
2019-03-03T09:53:57.427Z,10.70
2019-03-03T09:56:27.612Z,10.80
2019-03-03T09:59:03.704Z,10.80
2019-03-03T10:01:33.876Z,10.80
2019-03-03T10:04:13.384Z,10.90
2019-03-03T10:06:59.836Z,10.90
2019-03-03T10:09:32.711Z,11.00
2019-03-03T10:12:02.802Z,11.00
2019-03-03T10:14:39.648Z,11.10
2019-03-03T10:17:09.748Z,11.10
2019-03-03T10:19:42.534Z,11.20
2019-03-03T10:22:15.151Z,11.20
2019-03-03T10:24:51.391Z,11.30
2019-03-03T10:27:21.487Z,11.20
2019-03-03T10:29:54.148Z,11.30
2019-03-03T10:32:26.792Z,11.20
2019-03-03T10:35:05.773Z,11.20
2019-03-03T10:37:41.955Z,11.10
2019-03-03T10:40:29.388Z,11.10
2019-03-03T10:43:11.807Z,11.10
2019-03-03T10:45:54.127Z,11.10
2019-03-03T10:48:33.622Z,11.10
2019-03-03T10:51:06.653Z,11.10
2019-03-03T10:53:36.914Z,11.10
2019-03-03T10:56:07.184Z,11.20
2019-03-03T10:58:40.198Z,11.30
2019-03-03T11:01:10.737Z,11.30
2019-03-03T11:03:46.723Z,11.30
2019-03-03T11:06:33.128Z,11.40
2019-03-03T11:09:09.108Z,11.50
2019-03-03T11:11:45.235Z,11.60
2019-03-03T11:14:15.364Z,11.70
2019-03-03T11:16:54.596Z,11.70
2019-03-03T11:19:34.062Z,11.60
2019-03-03T11:22:10.628Z,11.50
2019-03-03T11:24:57.143Z,11.50
2019-03-03T11:27:27.763Z,11.50
2019-03-03T11:30:03.663Z,11.60
2019-03-03T11:32:36.771Z,11.60
2019-03-03T11:35:24.123Z,11.60
2019-03-03T11:38:00.201Z,11.50
2019-03-03T11:40:33.263Z,11.50
2019-03-03T11:43:15.559Z,11.50
2019-03-03T11:45:45.751Z,11.50
2019-03-03T11:48:30.964Z,11.50
2019-03-03T11:51:09.780Z,11.50
2019-03-03T11:53:49.007Z,11.50
2019-03-03T11:56:19.123Z,11.50
2019-03-03T11:58:49.215Z,11.50
2019-03-03T12:01:21.923Z,11.50
2019-03-03T12:03:57.863Z,11.40
2019-03-03T12:06:33.780Z,11.40
2019-03-03T12:09:06.675Z,11.50
2019-03-03T12:11:39.880Z,11.60
2019-03-03T12:14:26.211Z,11.70
2019-03-03T12:17:02.302Z,11.70
2019-03-03T12:19:41.427Z,11.80
2019-03-03T12:22:14.763Z,11.80
2019-03-03T12:24:50.923Z,11.80
2019-03-03T12:27:26.888Z,11.80
2019-03-03T12:30:13.066Z,11.80
2019-03-03T12:32:52.336Z,11.80
2019-03-03T12:35:38.698Z,11.90
2019-03-03T12:38:12.174Z,12.00
2019-03-03T12:40:54.407Z,12.00
2019-03-03T12:43:27.572Z,12.20
2019-03-03T12:46:00.427Z,12.30
2019-03-03T12:48:30.551Z,12.30
2019-03-03T12:51:00.715Z,12.50
2019-03-03T12:53:39.851Z,12.50
2019-03-03T12:56:15.772Z,12.60
2019-03-03T12:59:01.403Z,12.60
2019-03-03T13:01:31.576Z,12.70
2019-03-03T13:04:17.891Z,12.70
2019-03-03T13:07:02.976Z,12.50
2019-03-03T13:09:44.902Z,12.30
2019-03-03T13:12:15.075Z,12.30
2019-03-03T13:15:03.456Z,12.20
2019-03-03T13:17:36.295Z,12.20
2019-03-03T13:20:14.884Z,12.40
2019-03-03T13:22:57.068Z,12.50
2019-03-03T13:25:39.319Z,12.50
2019-03-03T13:28:26.299Z,12.60
2019-03-03T13:30:56.419Z,12.50
2019-03-03T13:33:26.511Z,12.30
2019-03-03T13:35:57.013Z,12.30
2019-03-03T13:38:39.452Z,12.30
2019-03-03T13:41:24.520Z,12.30
2019-03-03T13:43:53.483Z,12.20
2019-03-03T13:46:22.027Z,12.20
2019-03-03T13:48:51.369Z,12.20
2019-03-03T13:51:20.171Z,12.30
2019-03-03T13:53:48.623Z,12.40
2019-03-03T13:56:17.184Z,12.40
2019-03-03T13:58:45.783Z,12.30
2019-03-03T14:01:14.307Z,12.20
2019-03-03T14:03:42.960Z,12.30
2019-03-03T14:06:11.485Z,12.20
2019-03-03T14:08:39.970Z,12.10
2019-03-03T14:11:08.567Z,12.10
2019-03-03T14:13:37.411Z,12.00
2019-03-03T14:16:06.060Z,12.00
2019-03-03T14:18:34.651Z,12.00
2019-03-03T14:21:03.140Z,11.90
2019-03-03T14:23:31.660Z,11.80
2019-03-03T14:26:00.143Z,11.80
2019-03-03T14:28:28.663Z,11.80
2019-03-03T14:30:57.152Z,11.80
2019-03-03T14:33:25.900Z,11.80
2019-03-03T14:35:54.419Z,11.80
2019-03-03T14:38:22.903Z,11.90
2019-03-03T14:40:51.427Z,12.00
2019-03-03T14:43:19.912Z,12.00
2019-03-03T14:45:48.515Z,12.00
2019-03-03T14:48:16.999Z,12.10
2019-03-03T14:50:45.519Z,12.00
2019-03-03T14:53:13.991Z,12.00
2019-03-03T14:55:42.519Z,12.10
2019-03-03T14:58:11.000Z,12.10
2019-03-03T15:00:39.895Z,12.20
2019-03-03T15:03:08.992Z,12.20
2019-03-03T15:05:37.616Z,12.20
2019-03-03T15:08:06.468Z,12.10
2019-03-03T15:10:35.190Z,12.10
2019-03-03T15:13:03.812Z,12.10
2019-03-03T15:15:37.098Z,12.10
2019-03-03T15:18:06.328Z,12.20
2019-03-03T15:20:35.215Z,12.10
2019-03-03T15:23:03.744Z,12.10
2019-03-03T15:25:32.262Z,12.10
2019-03-03T15:28:00.880Z,12.00
2019-03-03T15:30:29.481Z,12.00
2019-03-03T15:32:58.098Z,12.00
2019-03-03T15:35:26.551Z,12.00
2019-03-03T15:37:55.191Z,12.10
2019-03-03T15:40:27.882Z,12.10
2019-03-03T15:42:56.498Z,12.00
2019-03-03T15:45:29.452Z,12.00
2019-03-03T15:47:57.919Z,11.90
2019-03-03T15:50:26.567Z,11.90
2019-03-03T15:52:55.031Z,11.90
2019-03-03T15:55:25.893Z,11.90
2019-03-03T15:57:54.615Z,11.90
2019-03-03T16:00:42.259Z,11.90
2019-03-03T16:03:10.863Z,11.90
2019-03-03T16:05:39.319Z,11.90
2019-03-03T16:08:07.873Z,11.90
2019-03-03T16:10:36.397Z,12.00
2019-03-03T16:13:05.323Z,12.00
2019-03-03T16:15:33.844Z,12.00
2019-03-03T16:18:02.399Z,12.00
2019-03-03T16:20:30.933Z,11.90
2019-03-03T16:22:59.816Z,11.90
2019-03-03T16:25:28.700Z,11.90
2019-03-03T16:27:57.243Z,11.90
2019-03-03T16:30:26.065Z,11.90
2019-03-03T16:32:54.591Z,11.80
2019-03-03T16:35:23.148Z,11.80
2019-03-03T16:37:51.668Z,11.80
2019-03-03T16:40:24.314Z,11.80
2019-03-03T16:42:52.903Z,11.70
2019-03-03T16:45:22.115Z,11.70
2019-03-03T16:47:50.842Z,11.70
2019-03-03T16:50:20.541Z,11.70
2019-03-03T16:52:49.236Z,11.60
2019-03-03T16:55:18.895Z,11.70
2019-03-03T16:57:47.601Z,11.60
2019-03-03T17:00:24.314Z,11.60
2019-03-03T17:02:53.158Z,11.50
2019-03-03T17:05:26.695Z,11.50
2019-03-03T17:07:55.520Z,11.50
2019-03-03T17:10:24.134Z,11.50
2019-03-03T17:12:52.757Z,11.50
2019-03-03T17:15:26.176Z,11.60
2019-03-03T17:17:55.075Z,11.50
2019-03-03T17:20:23.538Z,11.50
2019-03-03T17:22:52.303Z,11.50
2019-03-03T17:25:28.059Z,11.50
2019-03-03T17:27:56.516Z,11.50
2019-03-03T17:30:29.267Z,11.50
2019-03-03T17:32:57.862Z,11.50
2019-03-03T17:35:26.735Z,11.50
2019-03-03T17:37:56.716Z,11.50
2019-03-03T17:40:26.646Z,11.50
2019-03-03T17:42:55.136Z,11.50
2019-03-03T17:45:25.059Z,11.50
2019-03-03T17:47:54.062Z,11.50
2019-03-03T17:50:26.603Z,11.50
2019-03-03T17:52:55.199Z,11.50
2019-03-03T17:55:23.683Z,11.50
2019-03-03T17:57:53.247Z,11.50
2019-03-03T18:00:30.164Z,11.50
2019-03-03T18:02:58.684Z,11.40
2019-03-03T18:05:27.258Z,11.50
2019-03-03T18:07:55.807Z,11.50
2019-03-03T18:10:24.721Z,11.40
2019-03-03T18:12:53.272Z,11.40
2019-03-03T18:15:21.797Z,11.40
2019-03-03T18:17:50.795Z,11.40
2019-03-03T18:20:22.706Z,11.40
2019-03-03T18:22:51.328Z,11.50
2019-03-03T18:25:22.883Z,11.40
2019-03-03T18:27:51.363Z,11.40
2019-03-03T18:30:28.004Z,11.50
2019-03-03T18:32:56.704Z,11.50
2019-03-03T18:35:25.234Z,11.50
2019-03-03T18:37:53.686Z,11.50
2019-03-03T18:40:23.510Z,11.50
2019-03-03T18:42:52.276Z,11.50
2019-03-03T18:45:21.992Z,11.40
2019-03-03T18:47:50.788Z,11.50
2019-03-03T18:50:29.766Z,11.50
2019-03-03T18:52:59.979Z,11.50
2019-03-03T18:55:28.824Z,11.50
2019-03-03T18:57:57.307Z,11.50
2019-03-03T19:00:30.499Z,11.50
2019-03-03T19:02:59.299Z,11.50
2019-03-03T19:05:27.856Z,11.50
2019-03-03T19:07:56.380Z,11.50
2019-03-03T19:10:30.527Z,11.50
2019-03-03T19:12:59.004Z,11.50
2019-03-03T19:15:27.527Z,11.50
2019-03-03T19:17:56.011Z,11.50
2019-03-03T19:20:24.479Z,11.50
2019-03-03T19:22:53.388Z,11.50
2019-03-03T19:25:22.155Z,11.50
2019-03-03T19:27:50.753Z,11.50
2019-03-03T19:30:21.823Z,11.50
2019-03-03T19:33:02.909Z,11.50
2019-03-03T19:35:31.608Z,11.40
2019-03-03T19:38:00.055Z,11.40
2019-03-03T19:40:28.603Z,11.40
2019-03-03T19:42:57.103Z,11.40
2019-03-03T19:45:36.599Z,11.40
2019-03-03T19:48:06.190Z,11.40
2019-03-03T19:50:35.007Z,11.30
2019-03-03T19:53:03.994Z,11.30
2019-03-03T19:55:32.650Z,11.30
2019-03-03T19:58:01.611Z,11.30
2019-03-03T20:00:38.552Z,11.30
2019-03-03T20:03:06.147Z,11.30
2019-03-03T20:05:34.743Z,11.30
2019-03-03T20:08:03.433Z,11.30
2019-03-03T20:10:32.103Z,11.30
2019-03-03T20:13:00.656Z,11.30
2019-03-03T20:15:29.181Z,11.30
2019-03-03T20:17:58.002Z,11.30
2019-03-03T20:20:26.562Z,11.30
2019-03-03T20:22:55.435Z,11.30
2019-03-03T20:25:25.040Z,11.30
2019-03-03T20:27:53.563Z,11.30
2019-03-03T20:30:23.355Z,11.40
2019-03-03T20:32:52.080Z,11.30
2019-03-03T20:35:20.668Z,11.40
2019-03-03T20:37:49.259Z,11.30
2019-03-03T20:40:25.450Z,11.30
2019-03-03T20:42:55.044Z,11.30
2019-03-03T20:45:26.327Z,11.40
2019-03-03T20:47:54.779Z,11.40
2019-03-03T20:50:23.531Z,11.40
2019-03-03T20:52:52.127Z,11.40
2019-03-03T20:55:22.326Z,11.40
2019-03-03T20:57:51.024Z,11.40
2019-03-03T21:00:25.221Z,11.40
2019-03-03T21:02:53.815Z,11.40
2019-03-03T21:05:22.420Z,11.40
2019-03-03T21:07:52.101Z,11.40
2019-03-03T21:10:26.378Z,11.40
2019-03-03T21:12:54.991Z,11.40
2019-03-03T21:15:23.683Z,11.50
2019-03-03T21:17:52.242Z,11.40
2019-03-03T21:20:21.915Z,11.40
2019-03-03T21:22:50.573Z,11.40
2019-03-03T21:25:19.643Z,11.40
2019-03-03T21:27:48.571Z,11.50
2019-03-03T21:30:27.557Z,11.40
2019-03-03T21:32:56.185Z,11.40
2019-03-03T21:35:24.648Z,11.40
2019-03-03T21:37:53.253Z,11.30
2019-03-03T21:40:29.391Z,11.30
2019-03-03T21:42:58.250Z,11.30
2019-03-03T21:45:28.019Z,11.30
2019-03-03T21:47:57.254Z,11.20
2019-03-03T21:50:27.614Z,11.20
2019-03-03T21:52:56.240Z,11.20
2019-03-03T21:55:24.903Z,11.20
2019-03-03T21:57:53.840Z,11.10
2019-03-03T22:00:34.000Z,11.10
2019-03-03T22:03:02.560Z,11.10
2019-03-03T22:05:31.090Z,11.10
2019-03-03T22:07:59.848Z,11.10
2019-03-03T22:10:31.887Z,11.10
2019-03-03T22:13:02.047Z,11.00
2019-03-03T22:15:30.602Z,11.00
2019-03-03T22:17:59.194Z,11.00
2019-03-03T22:20:27.720Z,11.00
2019-03-03T22:22:56.204Z,10.90
2019-03-03T22:25:24.794Z,10.90
2019-03-03T22:27:53.338Z,10.90
2019-03-03T22:30:21.937Z,10.90
2019-03-03T22:32:50.501Z,10.90
2019-03-03T22:35:19.110Z,11.00
2019-03-03T22:37:47.722Z,11.00
2019-03-03T22:40:21.084Z,11.00
2019-03-03T22:42:49.702Z,11.00
2019-03-03T22:45:18.972Z,11.00
2019-03-03T22:47:47.431Z,11.10
2019-03-03T22:50:17.606Z,11.10
2019-03-03T22:52:46.203Z,11.10
2019-03-03T22:55:19.331Z,11.10
2019-03-03T22:57:47.851Z,11.20
2019-03-03T23:00:27.032Z,11.30
2019-03-03T23:02:55.552Z,11.40
2019-03-03T23:05:41.845Z,11.30
2019-03-03T23:08:13.459Z,11.30
2019-03-03T23:10:53.987Z,11.30
2019-03-03T23:13:33.931Z,11.30
2019-03-03T23:16:17.509Z,11.30
2019-03-03T23:19:06.909Z,11.20
2019-03-03T23:21:38.544Z,11.20
2019-03-03T23:24:12.968Z,11.20
2019-03-03T23:26:41.536Z,11.20
2019-03-03T23:29:10.072Z,11.10
2019-03-03T23:31:38.632Z,11.10
2019-03-03T23:34:07.174Z,11.10
2019-03-03T23:36:35.735Z,11.00
2019-03-03T23:39:06.820Z,11.00
2019-03-03T23:41:35.387Z,11.00
2019-03-03T23:44:04.064Z,10.90
2019-03-03T23:46:32.892Z,10.90
2019-03-03T23:49:01.457Z,10.80
2019-03-03T23:51:30.001Z,10.70
2019-03-03T23:53:58.562Z,10.70
2019-03-03T23:56:27.104Z,10.70
2019-03-03T23:58:55.661Z,10.70
